createdAt,value
2023-02-16T07:59:00.543Z,73.19
2023-02-16T08:01:32.118Z,72.98
2023-02-16T08:03:59.498Z,72.56
2023-02-16T08:06:27.083Z,71.80
2023-02-16T08:08:54.346Z,71.42
2023-02-16T08:11:25.326Z,70.99
2023-02-16T08:13:53.116Z,70.91
2023-02-16T08:16:28.902Z,70.57
2023-02-16T08:19:00.213Z,69.85
2023-02-16T08:21:34.483Z,69.44
2023-02-16T08:24:13.174Z,69.15
2023-02-16T08:26:44.706Z,69.05
2023-02-16T08:29:14.916Z,68.71
2023-02-16T08:31:42.635Z,68.43
2023-02-16T08:34:10.711Z,68.18
2023-02-16T08:36:40.182Z,67.84
2023-02-16T08:39:19.007Z,67.48
2023-02-16T08:41:49.877Z,67.17
2023-02-16T08:44:20.345Z,66.77
2023-02-16T08:46:49.516Z,66.48
2023-02-16T08:49:21.924Z,65.75
2023-02-16T08:51:56.905Z,65.65
2023-02-16T08:54:30.487Z,65.32
2023-02-16T08:57:00.015Z,64.80
2023-02-16T08:59:28.838Z,64.54
2023-02-16T09:01:59.125Z,64.40
2023-02-16T09:04:29.270Z,63.58
2023-02-16T09:06:58.563Z,63.11
2023-02-16T09:09:27.402Z,62.72
2023-02-16T09:11:55.185Z,61.67
2023-02-16T09:14:23.114Z,61.53
2023-02-16T09:16:50.605Z,61.27
2023-02-16T09:19:21.757Z,60.66
2023-02-16T09:21:50.964Z,59.89
2023-02-16T09:24:19.102Z,59.83
2023-02-16T09:26:46.594Z,59.22
2023-02-16T09:29:14.834Z,58.99
2023-02-16T09:31:44.267Z,58.07
2023-02-16T09:34:22.607Z,57.19
2023-02-16T09:36:51.016Z,56.98
2023-02-16T09:39:19.150Z,56.43
2023-02-16T09:42:54.088Z,55.55
2023-02-16T09:45:22.849Z,54.82
2023-02-16T09:47:52.148Z,55.13
2023-02-16T09:50:53.824Z,55.09
2023-02-16T09:53:34.853Z,53.85
2023-02-16T09:56:37.806Z,53.49
2023-02-16T10:00:08.498Z,52.65
2023-02-16T10:03:12.207Z,52.63
2023-02-16T10:06:34.377Z,51.35
2023-02-16T10:09:16.479Z,50.54
2023-02-16T10:12:02.262Z,49.29
2023-02-16T10:14:51.225Z,48.00
2023-02-16T10:17:38.433Z,47.79
2023-02-16T10:20:35.973Z,48.69
2023-02-16T10:23:50.387Z,47.83
2023-02-16T10:26:44.173Z,46.50
2023-02-16T10:29:20.697Z,46.64
2023-02-16T10:32:20.807Z,46.45
2023-02-16T10:35:10.905Z,47.34
2023-02-16T10:37:54.697Z,45.70
2023-02-16T10:41:27.992Z,44.00
2023-02-16T10:44:43.836Z,43.66
2023-02-16T10:47:45.907Z,42.46
2023-02-16T10:50:52.133Z,41.81
2023-02-16T10:53:39.186Z,42.07
2023-02-16T10:57:01.040Z,41.32
2023-02-16T10:59:44.553Z,41.23
2023-02-16T11:02:23.686Z,40.90
2023-02-16T11:04:55.940Z,39.98
2023-02-16T11:07:31.313Z,40.35
2023-02-16T11:10:18.181Z,40.13
2023-02-16T11:12:45.519Z,40.38
2023-02-16T11:15:18.942Z,39.83
2023-02-16T11:18:08.674Z,37.81
2023-02-16T11:20:42.226Z,38.27
2023-02-16T11:23:31.808Z,36.92
2023-02-16T11:26:10.525Z,37.13
2023-02-16T11:28:46.647Z,36.25
2023-02-16T11:31:40.297Z,36.36
2023-02-16T11:34:51.175Z,35.45
2023-02-16T11:37:34.104Z,34.92
2023-02-16T11:40:31.012Z,33.61
2023-02-16T11:43:02.035Z,34.08
2023-02-16T11:45:36.806Z,33.50
2023-02-16T11:48:24.765Z,33.12
2023-02-16T11:51:10.667Z,33.00
2023-02-16T11:53:42.624Z,33.17
2023-02-16T11:56:33.023Z,31.66
2023-02-16T11:59:21.177Z,31.19
2023-02-16T12:02:49.035Z,32.36
2023-02-16T12:06:22.203Z,31.57
2023-02-16T12:09:14.144Z,31.85
2023-02-16T12:12:14.723Z,29.47
2023-02-16T12:15:24.889Z,27.07
2023-02-16T12:18:58.416Z,26.54
2023-02-16T12:21:42.389Z,25.72
2023-02-16T12:24:41.277Z,26.04
2023-02-16T12:27:43.174Z,24.75
2023-02-16T12:31:27.516Z,25.05
2023-02-16T12:34:37.714Z,24.40
2023-02-16T12:37:17.352Z,25.09
2023-02-16T12:40:15.161Z,25.30
2023-02-16T12:43:04.102Z,25.80
2023-02-16T12:45:42.289Z,24.82
2023-02-16T12:48:57.451Z,23.41
2023-02-16T12:51:38.251Z,24.59
2023-02-16T12:54:22.419Z,24.66
2023-02-16T12:57:15.858Z,23.72
2023-02-16T13:00:15.038Z,24.09
2023-02-16T13:03:15.500Z,23.82
2023-02-16T13:05:45.978Z,23.10
2023-02-16T13:09:13.905Z,23.46
2023-02-16T13:12:39.351Z,25.62
2023-02-16T13:15:37.181Z,24.73
2023-02-16T13:18:48.960Z,25.13
2023-02-16T13:22:18.325Z,24.35
2023-02-16T13:25:09.924Z,24.69
2023-02-16T13:28:52.657Z,25.76
2023-02-16T13:32:08.910Z,26.22
2023-02-16T13:36:19.588Z,25.58
2023-02-16T13:39:48.843Z,25.49
2023-02-16T13:42:45.155Z,26.80
2023-02-16T13:45:37.084Z,26.15
2023-02-16T13:48:46.380Z,26.14
2023-02-16T13:51:23.696Z,27.49
2023-02-16T13:54:03.908Z,26.28
2023-02-16T13:56:30.990Z,26.89
2023-02-16T13:59:18.580Z,27.12
2023-02-16T14:01:49.332Z,28.00
2023-02-16T14:04:22.547Z,27.86
2023-02-16T14:07:32.142Z,27.42
2023-02-16T14:09:59.543Z,27.55
2023-02-16T14:12:33.829Z,27.20
2023-02-16T14:15:19.311Z,27.36
2023-02-16T14:17:47.304Z,28.01
2023-02-16T14:20:15.768Z,28.72
2023-02-16T14:22:50.818Z,27.82
2023-02-16T14:25:23.975Z,28.42
2023-02-16T14:27:58.578Z,27.98
2023-02-16T14:30:42.531Z,28.61
2023-02-16T14:33:12.732Z,29.06
2023-02-16T14:36:14.281Z,28.99
2023-02-16T14:38:41.461Z,28.84
2023-02-16T14:41:36.811Z,28.71
2023-02-16T14:44:06.926Z,29.43
2023-02-16T14:47:52.819Z,29.56
2023-02-16T14:51:19.463Z,29.32
2023-02-16T14:54:48.517Z,29.08
2023-02-16T14:57:41.304Z,30.30
2023-02-16T15:01:08.648Z,30.35
2023-02-16T15:03:52.747Z,30.12
2023-02-16T15:06:43.061Z,30.64
2023-02-16T15:09:24.618Z,30.90
2023-02-16T15:12:22.878Z,30.71
2023-02-16T15:15:04.681Z,30.54
2023-02-16T15:17:47.163Z,30.77
2023-02-16T15:20:34.915Z,30.54
2023-02-16T15:23:17.653Z,30.86
2023-02-16T15:26:19.941Z,30.87
2023-02-16T15:29:18.657Z,31.38
2023-02-16T15:31:46.686Z,31.47
2023-02-16T15:34:36.185Z,31.60
2023-02-16T15:37:32.874Z,31.64
2023-02-16T15:40:29.789Z,32.18
2023-02-16T15:43:37.512Z,31.96
2023-02-16T15:46:33.090Z,32.19
2023-02-16T15:49:22.289Z,32.49
2023-02-16T15:51:49.933Z,32.27
2023-02-16T15:54:35.642Z,32.22
2023-02-16T15:57:30.885Z,32.60
2023-02-16T16:00:20.869Z,32.59
2023-02-16T16:02:58.354Z,32.53
2023-02-16T16:05:33.103Z,32.33
2023-02-16T16:08:01.716Z,32.77
2023-02-16T16:10:36.881Z,32.05
2023-02-16T16:13:28.726Z,31.94
2023-02-16T16:16:02.140Z,32.17
2023-02-16T16:18:51.068Z,32.44
2023-02-16T16:21:34.182Z,32.05
2023-02-16T16:24:11.743Z,32.41
2023-02-16T16:26:57.829Z,32.50
2023-02-16T16:29:46.789Z,33.31
2023-02-16T16:32:30.179Z,33.11
2023-02-16T16:34:57.805Z,32.55
2023-02-16T16:37:35.853Z,32.64
2023-02-16T16:40:27.693Z,32.32
2023-02-16T16:43:18.350Z,32.15
2023-02-16T16:45:54.054Z,32.51
2023-02-16T16:48:37.193Z,31.99
2023-02-16T16:51:38.235Z,32.12
2023-02-16T16:54:39.845Z,32.12
2023-02-16T16:57:18.482Z,32.02
2023-02-16T16:59:45.776Z,31.82
2023-02-16T17:02:13.189Z,32.10
2023-02-16T17:04:40.464Z,31.83
2023-02-16T17:07:07.919Z,32.44
2023-02-16T17:09:35.265Z,33.31
2023-02-16T17:12:03.392Z,33.00
2023-02-16T17:14:30.722Z,32.99
2023-02-16T17:16:58.451Z,33.73
2023-02-16T17:19:29.354Z,33.55
2023-02-16T17:21:56.763Z,33.96
2023-02-16T17:24:24.159Z,34.13
2023-02-16T17:26:51.514Z,34.45
2023-02-16T17:29:18.899Z,34.47
2023-02-16T17:31:46.287Z,34.80
2023-02-16T17:34:13.697Z,34.63
2023-02-16T17:36:41.168Z,35.11
2023-02-16T17:39:08.501Z,35.36
2023-02-16T17:41:35.788Z,35.67
2023-02-16T17:44:04.186Z,35.72
2023-02-16T17:46:32.588Z,36.68
2023-02-16T17:48:59.898Z,36.88
2023-02-16T17:51:27.374Z,36.97
2023-02-16T17:53:54.775Z,36.93
2023-02-16T17:56:24.692Z,37.17
2023-02-16T17:58:52.323Z,37.37
2023-02-16T18:01:21.345Z,37.77
2023-02-16T18:03:48.990Z,38.40
2023-02-16T18:06:25.047Z,38.07
2023-02-16T18:08:53.377Z,38.60
2023-02-16T18:11:20.679Z,38.57
2023-02-16T18:13:48.337Z,38.72
2023-02-16T18:16:21.757Z,39.41
2023-02-16T18:18:49.154Z,39.06
2023-02-16T18:21:16.532Z,39.56
2023-02-16T18:23:43.891Z,40.49
2023-02-16T18:26:16.517Z,40.29
2023-02-16T18:28:44.723Z,40.85
2023-02-16T18:31:13.061Z,41.77
2023-02-16T18:33:40.562Z,41.51
2023-02-16T18:36:08.987Z,41.91
2023-02-16T18:38:36.542Z,42.26
2023-02-16T18:41:04.735Z,42.21
2023-02-16T18:43:32.108Z,42.12
2023-02-16T18:45:59.587Z,42.11
2023-02-16T18:48:26.935Z,41.40
2023-02-16T18:50:54.241Z,41.71
2023-02-16T18:53:21.546Z,42.16
2023-02-16T18:55:48.873Z,42.71
2023-02-16T18:58:16.393Z,41.68
2023-02-16T19:00:44.099Z,42.83
2023-02-16T19:03:11.577Z,43.25
2023-02-16T19:05:38.883Z,43.51
2023-02-16T19:08:06.707Z,43.54
2023-02-16T19:10:34.255Z,42.81
2023-02-16T19:13:02.243Z,43.42
2023-02-16T19:15:30.087Z,43.56
2023-02-16T19:17:57.786Z,43.19
2023-02-16T19:20:25.620Z,43.55
2023-02-16T19:22:53.166Z,42.65
2023-02-16T19:25:21.274Z,42.16
2023-02-16T19:27:48.822Z,43.02
2023-02-16T19:30:16.424Z,43.08
2023-02-16T19:32:43.860Z,44.25
2023-02-16T19:35:12.431Z,43.89
2023-02-16T19:37:39.931Z,43.73
2023-02-16T19:40:11.104Z,44.13
2023-02-16T19:42:39.894Z,43.87
2023-02-16T19:45:08.644Z,43.91
2023-02-16T19:47:35.951Z,44.51
2023-02-16T19:50:04.067Z,44.04
2023-02-16T19:52:31.483Z,45.25
2023-02-16T19:54:58.803Z,44.86
2023-02-16T19:57:26.165Z,46.04
2023-02-16T19:59:53.470Z,45.70
2023-02-16T20:02:20.855Z,45.56
2023-02-16T20:04:48.215Z,45.61
2023-02-16T20:07:15.576Z,46.01
2023-02-16T20:09:42.888Z,46.12
2023-02-16T20:12:10.261Z,46.45
2023-02-16T20:14:37.554Z,46.03
2023-02-16T20:17:05.075Z,46.02
2023-02-16T20:19:32.390Z,46.92
2023-02-16T20:21:59.728Z,46.37
2023-02-16T20:24:27.066Z,47.13
2023-02-16T20:26:54.471Z,47.34
2023-02-16T20:29:22.094Z,47.61
2023-02-16T20:31:57.940Z,47.79
2023-02-16T20:34:27.579Z,47.37
2023-02-16T20:36:55.210Z,47.42
2023-02-16T20:39:23.571Z,46.99
2023-02-16T20:41:51.010Z,47.30
2023-02-16T20:44:18.386Z,47.41
2023-02-16T20:46:45.913Z,47.26
2023-02-16T20:49:13.589Z,46.22
2023-02-16T20:51:41.354Z,46.78
2023-02-16T20:54:09.428Z,46.76
2023-02-16T20:56:36.744Z,46.57
2023-02-16T20:59:05.118Z,47.02
2023-02-16T21:01:46.533Z,46.96
2023-02-16T21:04:18.861Z,47.03
2023-02-16T21:06:46.994Z,46.58
2023-02-16T21:09:15.845Z,46.41
2023-02-16T21:11:43.949Z,46.39
2023-02-16T21:14:13.058Z,46.56
2023-02-16T21:16:41.118Z,46.51
2023-02-16T21:19:21.006Z,46.64
2023-02-16T21:21:50.009Z,47.65
2023-02-16T21:24:17.451Z,47.34
2023-02-16T21:26:44.922Z,47.48
2023-02-16T21:29:12.694Z,47.65
2023-02-16T21:31:40.187Z,47.64
2023-02-16T21:34:07.549Z,47.46
2023-02-16T21:36:34.905Z,47.66
2023-02-16T21:39:02.989Z,47.65
2023-02-16T21:41:30.686Z,47.63
2023-02-16T21:44:13.653Z,47.41
2023-02-16T21:46:47.716Z,47.98
2023-02-16T21:49:20.190Z,48.04
2023-02-16T21:51:49.024Z,47.73
2023-02-16T21:54:42.218Z,47.90
2023-02-16T21:57:09.529Z,47.63
2023-02-16T21:59:37.137Z,47.73
2023-02-16T22:02:04.502Z,47.83
2023-02-16T22:04:31.811Z,48.28
2023-02-16T22:06:59.095Z,48.21
2023-02-16T22:09:26.415Z,48.25
2023-02-16T22:11:53.775Z,48.09
2023-02-16T22:14:21.090Z,48.24
2023-02-16T22:16:50.726Z,48.39
2023-02-16T22:19:18.903Z,48.73
2023-02-16T22:21:48.259Z,48.64
2023-02-16T22:24:18.503Z,49.32
2023-02-16T22:26:49.234Z,49.32
2023-02-16T22:29:17.564Z,49.89
2023-02-16T22:31:50.240Z,49.50
2023-02-16T22:34:23.986Z,49.44
2023-02-16T22:36:51.698Z,49.49
2023-02-16T22:39:20.361Z,49.85
2023-02-16T22:41:51.289Z,50.00
2023-02-16T22:44:18.656Z,50.45
2023-02-16T22:46:45.978Z,50.24
2023-02-16T22:49:13.284Z,49.98
2023-02-16T22:51:40.613Z,50.20
2023-02-16T22:54:08.477Z,50.19
2023-02-16T22:56:36.076Z,49.82
2023-02-16T22:59:03.592Z,50.41
2023-02-16T23:01:31.574Z,50.43
2023-02-16T23:04:01.485Z,50.76
2023-02-16T23:06:38.162Z,50.63
2023-02-16T23:09:15.628Z,50.50
2023-02-16T23:11:43.012Z,50.27
2023-02-16T23:14:16.517Z,50.85
2023-02-16T23:16:54.781Z,50.42
2023-02-16T23:19:26.849Z,50.23
2023-02-16T23:21:54.976Z,50.34
2023-02-16T23:24:24.068Z,50.47
2023-02-16T23:26:52.692Z,50.21
2023-02-16T23:29:20.686Z,50.30
2023-02-16T23:31:49.098Z,50.47
